KRCZ

Details ICAO KRCZ (RCZ)
Name Richmond County
Region United States
Timezone America/New_York (UTC-5.0)
Plans Departing 2
Arriving 0
Stats Elevation 358 ft / 109 m (AMSL)
Location 34.891515° -79.761441°
Runways 2
Magnetic Variation 8.399° W
Sunrise 2017-12-14 12:20:18 UTC / 2017-12-14 07:20:18 Local
Sunset 2017-12-14 22:10:10 UTC / 2017-12-14 17:10:10 Local
Advertisement - Login to hide

Runways

ID Width Length Bearing (true) Bearing (mag) Surface Threshold Offset Overrun Length
04 499 ft / 152 m 2,998 ft / 914 m 40.49° 48.89° Grass 0 ft / 0 m 0 ft / 0 m
14 98 ft / 30 m 5,005 ft / 1,525 m 130.21° 138.61° Asphalt 0 ft / 0 m 0 ft / 0 m
22 499 ft / 152 m 2,998 ft / 914 m 220.49° 228.89° Grass 0 ft / 0 m 0 ft / 0 m
32 98 ft / 30 m 5,005 ft / 1,525 m 310.21° 318.61° Asphalt 200 ft / 61 m 0 ft / 0 m

Map

Weather


0- 5 10 15 20 25 30 35+ Temperature / ° C

Clouds and Precipitation
Forecast for 2017-12-14 12:00 UTC. Updated an hour ago

Ground ~20,000 ft ~40,000 ft Winds

METAR

KRCZ 141220Z AUTO 21006KT 10SM CLR 01/M05 A2981 RMK AO2 T00101055

TAF

Not found

Frequencies

Recorded 118.77 MHz AWOS 3
Approach 127.80 MHz FAYETTEVILLE APP/DEP
Unicom 122.80 MHz CTAF/UNICOM
Warning: Do not use this data for real-world aviation or navigation. No guarantee of current accuracy is given.